Bellwood, Alabama
Current Conditions -  °F | °C
As of 1:58 AM on Friday 28 Nov 2014 (Local Time) from KOZR Reporting Station
Clear Clear  
Wind Chill: 30°   Ceiling: Unl
Heat Index: 35°   Visibility: 10mi
Dew Point: 29°   Wind: 6mph
Humidity: 81%   Direction: 330°NNW
Pressure: 30.4"   Gusts: NA
Location:  31.17°N, 85.79°W
Report Text: KOZR 280758Z AUTO 33005KT 10SM CLR 02/M01 A3040 RMK AO2 SLP298 T00161014 RVRNO
Loading
Personal Weather Stations






























Interactive Weather Map New forecast layout! Learn more

10-Day Weather Forecast

Advertisements
Track Severe Weather on mobile